To NAV CANADA Home Page Login to a new session Search on AWWS site Feedback and Comments Disclaimer Vers la page française équivalente Tips FAQ What's new on the site To the Forecasts and Observations / NOTAM section To "File a Flight Plan" website Publications and other links Update of the User's profile FIC Telephone Numbers My Weather Data Folder Route Weather Data Regional Weather Data Local Weather Data To the Forecasts and Observations / NOTAM section
Request Generated 03/27/2015 at 05:13:27 UTC . Weather information available at that time is displayed.

METAR/TAF

SARNIA/SARNIA (CHRIS HADFIELD)/ON    (show WxCam)

METAR CYZR 270500Z AUTO 31013G22KT 9SM OVC060 M02/M06 A2993 RMK
SLP140=
SPECI CYZR 270444Z AUTO 31015G21KT 9SM FEW021 OVC055 M01/M06 A2992
RMK SLP138=
SPECI CYZR 270424Z AUTO 31013G21KT 9SM -SN SCT019 OVC060 M01/M05
A2992 RMK SLP138=
SPECI CYZR 270417Z AUTO 33015KT 9SM -SN BKN019 OVC060 M01/M04 A2992
RMK SLP137=
METAR CYZR 270400Z AUTO 32015KT 9SM -SN OVC055 M00/M04 A2991 RMK
SLP135=
SPECI CYZR 270344Z AUTO 33014G22KT 9SM -SN OVC055 M00/M04 A2991 RMK
SLP133=
SPECI CYZR 270338Z AUTO 32015G24KT 9SM -SNRA OVC055 M00/M04 A2991 RMK
SLP135=
METAR CYZR 270300Z AUTO 33013G18KT 9SM -RA OVC048 01/M03 A2990 RMK
SLP131=

*** REMARK        : Forecast period has ended; this was the last TAF issued
*** REMARQUE : La période de prévision est échue; ceci était le dernier TAF qui a été émis
TAF CYZR 261938Z 2620/2702 31008KT P6SM OVC040
RMK FCST BASED ON AUTO OBS. NXT FCST WILL BE ISSUED AT 271145Z=
Your time UTC time
Weather data provided by Environment Canada and NAV CANADA